Terminal Aerodrome Forecast
Issued by NWS

Home | Current Version | Previous Version | Text Only | Print | Product List | Glossary On
Versions: 1 2 3 4 5 6 7 8 9 10 11 12 13 14 15 16 17
000
FTUS45 KRIW 200100 AAA
TAFBPI
TAF AMD
KBPI 200122Z 2001/2024 01006KT P6SM VCSH OVC040
     FM200900 VRB05KT P6SM -SHRA VCFG BKN020
     FM201700 15009KT P6SM BKN035=

USA.gov is the U.S. government's official web portal to all federal, state and local government web resources and services.